sensor_id;sensor_type;location;lat;lon;timestamp;P1;durP1;ratioP1;P2;durP2;ratioP2
19084;SDS011;9675;51.538;6.728;2023-06-14T00:01:55;3.80;;;2.40;;
19084;SDS011;9675;51.538;6.728;2023-06-14T00:04:23;3.22;;;2.40;;
19084;SDS011;9675;51.538;6.728;2023-06-14T00:06:51;3.13;;;2.05;;
19084;SDS011;9675;51.538;6.728;2023-06-14T00:09:18;3.42;;;2.25;;
19084;SDS011;9675;51.538;6.728;2023-06-14T00:11:46;3.58;;;2.33;;
19084;SDS011;9675;51.538;6.728;2023-06-14T00:14:13;4.00;;;2.20;;
19084;SDS011;9675;51.538;6.728;2023-06-14T00:16:40;4.93;;;2.80;;
19084;SDS011;9675;51.538;6.728;2023-06-14T00:19:08;3.80;;;2.20;;
19084;SDS011;9675;51.538;6.728;2023-06-14T00:21:37;3.22;;;2.08;;
19084;SDS011;9675;51.538;6.728;2023-06-14T00:24:04;3.90;;;2.45;;
19084;SDS011;9675;51.538;6.728;2023-06-14T00:26:32;3.15;;;1.75;;
19084;SDS011;9675;51.538;6.728;2023-06-14T00:28:59;3.63;;;2.35;;
19084;SDS011;9675;51.538;6.728;2023-06-14T00:31:26;2.95;;;2.47;;
19084;SDS011;9675;51.538;6.728;2023-06-14T00:33:53;4.75;;;2.35;;
19084;SDS011;9675;51.538;6.728;2023-06-14T00:36:20;2.85;;;2.00;;
19084;SDS011;9675;51.538;6.728;2023-06-14T00:38:48;3.42;;;2.25;;
19084;SDS011;9675;51.538;6.728;2023-06-14T00:41:15;4.95;;;2.42;;
19084;SDS011;9675;51.538;6.728;2023-06-14T00:43:42;3.40;;;2.17;;
19084;SDS011;9675;51.538;6.728;2023-06-14T00:46:09;2.60;;;1.73;;
19084;SDS011;9675;51.538;6.728;2023-06-14T00:48:37;4.68;;;2.47;;
19084;SDS011;9675;51.538;6.728;2023-06-14T00:51:06;2.35;;;1.70;;
19084;SDS011;9675;51.538;6.728;2023-06-14T00:53:33;5.00;;;2.42;;
19084;SDS011;9675;51.538;6.728;2023-06-14T00:56:02;5.47;;;2.28;;
19084;SDS011;9675;51.538;6.728;2023-06-14T00:58:30;4.45;;;2.20;;
19084;SDS011;9675;51.538;6.728;2023-06-14T01:00:58;3.80;;;2.15;;
19084;SDS011;9675;51.538;6.728;2023-06-14T01:03:25;4.63;;;2.65;;
19084;SDS011;9675;51.538;6.728;2023-06-14T01:05:53;3.05;;;2.00;;
19084;SDS011;9675;51.538;6.728;2023-06-14T01:08:37;3.10;;;2.13;;
19084;SDS011;9675;51.538;6.728;2023-06-14T01:11:16;2.72;;;1.85;;
19084;SDS011;9675;51.538;6.728;2023-06-14T01:13:51;4.07;;;2.10;;
19084;SDS011;9675;51.538;6.728;2023-06-14T01:16:22;3.00;;;2.03;;
19084;SDS011;9675;51.538;6.728;2023-06-14T01:18:50;3.35;;;2.67;;
19084;SDS011;9675;51.538;6.728;2023-06-14T01:21:21;4.25;;;2.10;;
19084;SDS011;9675;51.538;6.728;2023-06-14T01:23:51;5.50;;;2.30;;
19084;SDS011;9675;51.538;6.728;2023-06-14T01:26:19;4.60;;;1.90;;
19084;SDS011;9675;51.538;6.728;2023-06-14T01:28:47;3.35;;;2.05;;
19084;SDS011;9675;51.538;6.728;2023-06-14T01:31:18;3.85;;;2.28;;
19084;SDS011;9675;51.538;6.728;2023-06-14T01:33:47;3.70;;;2.20;;
19084;SDS011;9675;51.538;6.728;2023-06-14T01:36:16;2.75;;;1.90;;
19084;SDS011;9675;51.538;6.728;2023-06-14T01:38:45;3.55;;;2.33;;
19084;SDS011;9675;51.538;6.728;2023-06-14T01:41:16;2.38;;;1.70;;
19084;SDS011;9675;51.538;6.728;2023-06-14T01:43:46;3.47;;;1.98;;
19084;SDS011;9675;51.538;6.728;2023-06-14T01:46:17;3.97;;;2.25;;
19084;SDS011;9675;51.538;6.728;2023-06-14T01:48:45;3.00;;;2.10;;
19084;SDS011;9675;51.538;6.728;2023-06-14T01:51:12;2.50;;;1.98;;
19084;SDS011;9675;51.538;6.728;2023-06-14T01:53:39;2.88;;;1.95;;
19084;SDS011;9675;51.538;6.728;2023-06-14T01:56:06;4.05;;;1.98;;
19084;SDS011;9675;51.538;6.728;2023-06-14T01:58:35;4.45;;;1.67;;
19084;SDS011;9675;51.538;6.728;2023-06-14T02:01:02;3.92;;;1.90;;
19084;SDS011;9675;51.538;6.728;2023-06-14T02:03:30;2.95;;;1.85;;
19084;SDS011;9675;51.538;6.728;2023-06-14T02:05:57;4.57;;;2.03;;
19084;SDS011;9675;51.538;6.728;2023-06-14T02:08:24;5.40;;;1.80;;
19084;SDS011;9675;51.538;6.728;2023-06-14T02:10:51;2.45;;;1.63;;
19084;SDS011;9675;51.538;6.728;2023-06-14T02:13:18;5.32;;;2.08;;
19084;SDS011;9675;51.538;6.728;2023-06-14T02:15:46;3.47;;;1.75;;
19084;SDS011;9675;51.538;6.728;2023-06-14T02:18:16;3.10;;;2.00;;
19084;SDS011;9675;51.538;6.728;2023-06-14T02:20:43;2.33;;;1.65;;
19084;SDS011;9675;51.538;6.728;2023-06-14T02:23:10;3.40;;;1.40;;
19084;SDS011;9675;51.538;6.728;2023-06-14T02:25:37;2.83;;;1.90;;
19084;SDS011;9675;51.538;6.728;2023-06-14T02:28:04;2.65;;;1.40;;
19084;SDS011;9675;51.538;6.728;2023-06-14T02:30:31;5.20;;;2.28;;
19084;SDS011;9675;51.538;6.728;2023-06-14T02:33:00;3.85;;;1.75;;
19084;SDS011;9675;51.538;6.728;2023-06-14T02:35:28;3.08;;;1.98;;
19084;SDS011;9675;51.538;6.728;2023-06-14T02:37:56;3.22;;;1.77;;
19084;SDS011;9675;51.538;6.728;2023-06-14T02:40:23;4.00;;;1.67;;
19084;SDS011;9675;51.538;6.728;2023-06-14T02:42:50;5.88;;;1.95;;
19084;SDS011;9675;51.538;6.728;2023-06-14T02:45:17;1.85;;;1.55;;
19084;SDS011;9675;51.538;6.728;2023-06-14T02:47:46;2.22;;;1.80;;
19084;SDS011;9675;51.538;6.728;2023-06-14T02:50:14;2.60;;;1.88;;
19084;SDS011;9675;51.538;6.728;2023-06-14T02:52:42;2.80;;;2.05;;
19084;SDS011;9675;51.538;6.728;2023-06-14T02:55:09;3.15;;;1.77;;
19084;SDS011;9675;51.538;6.728;2023-06-14T02:57:36;2.45;;;1.83;;
19084;SDS011;9675;51.538;6.728;2023-06-14T03:00:04;2.35;;;1.60;;
19084;SDS011;9675;51.538;6.728;2023-06-14T03:02:34;3.30;;;1.60;;
19084;SDS011;9675;51.538;6.728;2023-06-14T03:05:01;4.70;;;1.77;;
19084;SDS011;9675;51.538;6.728;2023-06-14T03:07:31;2.88;;;1.75;;
19084;SDS011;9675;51.538;6.728;2023-06-14T03:09:59;2.17;;;1.50;;
19084;SDS011;9675;51.538;6.728;2023-06-14T03:12:26;1.88;;;1.45;;
19084;SDS011;9675;51.538;6.728;2023-06-14T03:14:53;2.05;;;1.58;;
19084;SDS011;9675;51.538;6.728;2023-06-14T03:17:21;5.78;;;1.92;;
19084;SDS011;9675;51.538;6.728;2023-06-14T03:19:49;3.28;;;1.73;;
19084;SDS011;9675;51.538;6.728;2023-06-14T03:22:16;2.75;;;1.90;;
19084;SDS011;9675;51.538;6.728;2023-06-14T03:24:44;2.85;;;1.58;;
19084;SDS011;9675;51.538;6.728;2023-06-14T03:27:12;2.80;;;1.90;;
19084;SDS011;9675;51.538;6.728;2023-06-14T03:29:39;5.82;;;1.77;;
19084;SDS011;9675;51.538;6.728;2023-06-14T03:32:06;2.78;;;1.75;;
19084;SDS011;9675;51.538;6.728;2023-06-14T03:34:35;4.53;;;1.92;;
19084;SDS011;9675;51.538;6.728;2023-06-14T03:37:04;4.78;;;1.50;;
19084;SDS011;9675;51.538;6.728;2023-06-14T03:39:31;3.47;;;1.70;;
19084;SDS011;9675;51.538;6.728;2023-06-14T03:41:59;3.17;;;1.70;;
19084;SDS011;9675;51.538;6.728;2023-06-14T03:44:26;5.20;;;1.88;;
19084;SDS011;9675;51.538;6.728;2023-06-14T03:46:53;5.65;;;1.88;;
19084;SDS011;9675;51.538;6.728;2023-06-14T03:49:20;2.50;;;1.52;;
19084;SDS011;9675;51.538;6.728;2023-06-14T03:51:48;3.85;;;1.83;;
19084;SDS011;9675;51.538;6.728;2023-06-14T03:54:16;1.90;;;1.20;;
19084;SDS011;9675;51.538;6.728;2023-06-14T03:56:43;3.58;;;1.42;;
19084;SDS011;9675;51.538;6.728;2023-06-14T03:59:12;3.95;;;1.70;;
19084;SDS011;9675;51.538;6.728;2023-06-14T04:01:39;2.67;;;1.77;;
19084;SDS011;9675;51.538;6.728;2023-06-14T04:04:10;3.17;;;1.60;;
19084;SDS011;9675;51.538;6.728;2023-06-14T04:06:38;5.68;;;2.15;;
19084;SDS011;9675;51.538;6.728;2023-06-14T04:09:06;3.28;;;1.60;;
19084;SDS011;9675;51.538;6.728;2023-06-14T04:11:33;3.13;;;1.42;;
19084;SDS011;9675;51.538;6.728;2023-06-14T04:14:01;5.72;;;1.73;;
19084;SDS011;9675;51.538;6.728;2023-06-14T04:16:30;3.55;;;1.80;;
19084;SDS011;9675;51.538;6.728;2023-06-14T04:18:57;2.13;;;1.50;;
19084;SDS011;9675;51.538;6.728;2023-06-14T04:21:24;3.00;;;1.88;;
19084;SDS011;9675;51.538;6.728;2023-06-14T04:23:52;1.67;;;1.42;;
19084;SDS011;9675;51.538;6.728;2023-06-14T04:26:20;5.85;;;1.50;;
19084;SDS011;9675;51.538;6.728;2023-06-14T04:28:54;2.53;;;1.30;;
19084;SDS011;9675;51.538;6.728;2023-06-14T04:31:21;3.00;;;1.38;;
19084;SDS011;9675;51.538;6.728;2023-06-14T04:33:51;2.92;;;1.38;;
19084;SDS011;9675;51.538;6.728;2023-06-14T04:36:18;2.95;;;1.45;;
19084;SDS011;9675;51.538;6.728;2023-06-14T04:38:46;2.50;;;1.50;;
19084;SDS011;9675;51.538;6.728;2023-06-14T04:41:14;2.33;;;1.45;;
19084;SDS011;9675;51.538;6.728;2023-06-14T04:43:41;2.60;;;1.57;;
19084;SDS011;9675;51.538;6.728;2023-06-14T04:46:08;2.83;;;1.42;;
19084;SDS011;9675;51.538;6.728;2023-06-14T04:48:36;1.85;;;1.27;;
19084;SDS011;9675;51.538;6.728;2023-06-14T04:51:05;1.77;;;1.40;;
19084;SDS011;9675;51.538;6.728;2023-06-14T04:53:33;1.83;;;1.25;;
19084;SDS011;9675;51.538;6.728;2023-06-14T04:56:00;2.33;;;1.52;;
19084;SDS011;9675;51.538;6.728;2023-06-14T04:58:29;3.05;;;1.50;;
19084;SDS011;9675;51.538;6.728;2023-06-14T05:00:56;2.17;;;1.48;;
19084;SDS011;9675;51.538;6.728;2023-06-14T05:03:24;3.55;;;1.95;;
19084;SDS011;9675;51.538;6.728;2023-06-14T05:05:52;6.20;;;1.30;;
19084;SDS011;9675;51.538;6.728;2023-06-14T05:08:21;2.45;;;1.10;;
19084;SDS011;9675;51.538;6.728;2023-06-14T05:10:49;2.70;;;1.67;;
19084;SDS011;9675;51.538;6.728;2023-06-14T05:13:16;2.65;;;1.33;;
19084;SDS011;9675;51.538;6.728;2023-06-14T05:15:43;2.13;;;1.53;;
19084;SDS011;9675;51.538;6.728;2023-06-14T05:18:11;4.55;;;2.40;;
19084;SDS011;9675;51.538;6.728;2023-06-14T05:20:39;2.47;;;1.70;;
19084;SDS011;9675;51.538;6.728;2023-06-14T05:23:08;2.17;;;1.40;;
19084;SDS011;9675;51.538;6.728;2023-06-14T05:25:41;3.20;;;1.37;;
19084;SDS011;9675;51.538;6.728;2023-06-14T05:28:09;1.70;;;1.03;;
19084;SDS011;9675;51.538;6.728;2023-06-14T05:30:37;3.85;;;1.85;;
19084;SDS011;9675;51.538;6.728;2023-06-14T05:33:04;3.83;;;1.30;;
19084;SDS011;9675;51.538;6.728;2023-06-14T05:35:32;2.00;;;1.10;;
19084;SDS011;9675;51.538;6.728;2023-06-14T05:37:59;7.57;;;1.77;;
19084;SDS011;9675;51.538;6.728;2023-06-14T05:40:26;2.67;;;1.63;;
19084;SDS011;9675;51.538;6.728;2023-06-14T05:42:55;2.90;;;1.33;;
19084;SDS011;9675;51.538;6.728;2023-06-14T05:45:22;2.17;;;1.63;;
19084;SDS011;9675;51.538;6.728;2023-06-14T05:47:49;4.28;;;1.45;;
19084;SDS011;9675;51.538;6.728;2023-06-14T05:50:16;1.17;;;0.83;;
19084;SDS011;9675;51.538;6.728;2023-06-14T05:52:43;2.85;;;1.50;;
19084;SDS011;9675;51.538;6.728;2023-06-14T05:55:10;2.47;;;1.63;;
19084;SDS011;9675;51.538;6.728;2023-06-14T05:57:38;1.45;;;0.90;;
19084;SDS011;9675;51.538;6.728;2023-06-14T06:00:07;1.77;;;1.20;;
19084;SDS011;9675;51.538;6.728;2023-06-14T06:02:39;1.77;;;1.42;;
19084;SDS011;9675;51.538;6.728;2023-06-14T06:05:07;3.10;;;1.60;;
19084;SDS011;9675;51.538;6.728;2023-06-14T06:07:35;3.83;;;1.60;;
19084;SDS011;9675;51.538;6.728;2023-06-14T06:10:02;2.50;;;1.35;;
19084;SDS011;9675;51.538;6.728;2023-06-14T06:12:31;2.45;;;1.23;;
19084;SDS011;9675;51.538;6.728;2023-06-14T06:14:58;2.47;;;1.27;;
19084;SDS011;9675;51.538;6.728;2023-06-14T06:17:27;2.20;;;1.17;;
19084;SDS011;9675;51.538;6.728;2023-06-14T06:19:54;4.05;;;1.58;;
19084;SDS011;9675;51.538;6.728;2023-06-14T06:22:21;3.10;;;1.40;;
19084;SDS011;9675;51.538;6.728;2023-06-14T06:24:48;2.22;;;1.40;;
19084;SDS011;9675;51.538;6.728;2023-06-14T06:27:16;7.18;;;1.67;;
19084;SDS011;9675;51.538;6.728;2023-06-14T06:29:44;3.75;;;1.23;;
19084;SDS011;9675;51.538;6.728;2023-06-14T06:32:11;1.67;;;1.10;;
19084;SDS011;9675;51.538;6.728;2023-06-14T06:34:39;1.60;;;1.10;;
19084;SDS011;9675;51.538;6.728;2023-06-14T06:37:06;3.63;;;1.40;;
19084;SDS011;9675;51.538;6.728;2023-06-14T06:39:33;3.47;;;1.20;;
19084;SDS011;9675;51.538;6.728;2023-06-14T06:42:01;7.45;;;1.60;;
19084;SDS011;9675;51.538;6.728;2023-06-14T06:44:28;2.37;;;1.00;;
19084;SDS011;9675;51.538;6.728;2023-06-14T06:46:55;1.73;;;1.00;;
19084;SDS011;9675;51.538;6.728;2023-06-14T06:49:23;1.83;;;1.02;;
19084;SDS011;9675;51.538;6.728;2023-06-14T06:52:01;3.63;;;1.33;;
19084;SDS011;9675;51.538;6.728;2023-06-14T06:54:29;3.13;;;1.15;;
19084;SDS011;9675;51.538;6.728;2023-06-14T06:56:57;2.10;;;0.82;;
19084;SDS011;9675;51.538;6.728;2023-06-14T06:59:25;1.48;;;0.80;;
19084;SDS011;9675;51.538;6.728;2023-06-14T07:01:52;3.10;;;0.80;;
19084;SDS011;9675;51.538;6.728;2023-06-14T07:04:19;1.45;;;0.43;;
19084;SDS011;9675;51.538;6.728;2023-06-14T07:06:46;1.55;;;0.90;;
19084;SDS011;9675;51.538;6.728;2023-06-14T07:09:14;1.95;;;0.98;;
19084;SDS011;9675;51.538;6.728;2023-06-14T07:11:42;2.33;;;0.75;;
19084;SDS011;9675;51.538;6.728;2023-06-14T07:14:10;1.60;;;0.80;;
19084;SDS011;9675;51.538;6.728;2023-06-14T07:16:37;2.85;;;1.20;;
19084;SDS011;9675;51.538;6.728;2023-06-14T07:19:06;1.50;;;0.90;;
19084;SDS011;9675;51.538;6.728;2023-06-14T07:21:34;1.67;;;1.00;;
19084;SDS011;9675;51.538;6.728;2023-06-14T07:24:02;1.50;;;0.70;;
19084;SDS011;9675;51.538;6.728;2023-06-14T07:26:33;1.13;;;0.82;;
19084;SDS011;9675;51.538;6.728;2023-06-14T07:29:00;3.40;;;1.05;;
19084;SDS011;9675;51.538;6.728;2023-06-14T07:31:28;1.58;;;0.77;;
19084;SDS011;9675;51.538;6.728;2023-06-14T07:33:55;3.85;;;0.85;;
19084;SDS011;9675;51.538;6.728;2023-06-14T07:36:22;0.68;;;0.55;;
19084;SDS011;9675;51.538;6.728;2023-06-14T07:38:49;0.93;;;0.80;;
19084;SDS011;9675;51.538;6.728;2023-06-14T07:41:16;1.40;;;0.82;;
19084;SDS011;9675;51.538;6.728;2023-06-14T07:43:44;1.08;;;0.80;;
19084;SDS011;9675;51.538;6.728;2023-06-14T07:46:11;2.15;;;1.23;;
19084;SDS011;9675;51.538;6.728;2023-06-14T07:48:39;3.47;;;1.17;;
19084;SDS011;9675;51.538;6.728;2023-06-14T07:51:06;0.82;;;0.52;;
19084;SDS011;9675;51.538;6.728;2023-06-14T07:53:33;2.67;;;1.03;;
19084;SDS011;9675;51.538;6.728;2023-06-14T07:56:00;1.15;;;0.85;;
19084;SDS011;9675;51.538;6.728;2023-06-14T07:58:27;2.17;;;1.35;;
19084;SDS011;9675;51.538;6.728;2023-06-14T08:00:56;2.20;;;0.65;;
19084;SDS011;9675;51.538;6.728;2023-06-14T08:03:23;1.27;;;0.77;;
19084;SDS011;9675;51.538;6.728;2023-06-14T08:05:50;1.63;;;1.00;;
19084;SDS011;9675;51.538;6.728;2023-06-14T08:08:17;1.70;;;0.98;;
19084;SDS011;9675;51.538;6.728;2023-06-14T08:10:44;1.23;;;0.90;;
19084;SDS011;9675;51.538;6.728;2023-06-14T08:13:11;1.00;;;0.88;;
19084;SDS011;9675;51.538;6.728;2023-06-14T08:15:38;5.15;;;1.33;;
19084;SDS011;9675;51.538;6.728;2023-06-14T08:18:07;4.55;;;1.23;;
19084;SDS011;9675;51.538;6.728;2023-06-14T08:20:34;1.98;;;0.88;;
19084;SDS011;9675;51.538;6.728;2023-06-14T08:23:02;3.35;;;1.15;;
19084;SDS011;9675;51.538;6.728;2023-06-14T08:25:30;3.67;;;0.85;;
19084;SDS011;9675;51.538;6.728;2023-06-14T08:27:57;0.40;;;0.40;;
19084;SDS011;9675;51.538;6.728;2023-06-14T08:30:24;1.15;;;0.85;;
19084;SDS011;9675;51.538;6.728;2023-06-14T08:32:51;2.15;;;0.70;;
19084;SDS011;9675;51.538;6.728;2023-06-14T08:35:21;1.65;;;1.00;;
19084;SDS011;9675;51.538;6.728;2023-06-14T08:37:49;3.33;;;0.93;;
19084;SDS011;9675;51.538;6.728;2023-06-14T08:40:19;0.60;;;0.60;;
19084;SDS011;9675;51.538;6.728;2023-06-14T08:42:50;1.55;;;0.65;;
19084;SDS011;9675;51.538;6.728;2023-06-14T08:45:18;3.47;;;1.30;;
19084;SDS011;9675;51.538;6.728;2023-06-14T08:47:47;1.23;;;0.90;;
19084;SDS011;9675;51.538;6.728;2023-06-14T08:50:17;0.90;;;0.77;;
19084;SDS011;9675;51.538;6.728;2023-06-14T08:52:50;2.92;;;0.88;;
19084;SDS011;9675;51.538;6.728;2023-06-14T08:55:22;3.03;;;0.98;;
19084;SDS011;9675;51.538;6.728;2023-06-14T08:57:53;3.65;;;0.80;;
19084;SDS011;9675;51.538;6.728;2023-06-14T09:00:22;1.67;;;1.33;;
19084;SDS011;9675;51.538;6.728;2023-06-14T09:02:51;1.10;;;0.85;;
19084;SDS011;9675;51.538;6.728;2023-06-14T09:05:24;2.70;;;1.50;;
19084;SDS011;9675;51.538;6.728;2023-06-14T09:07:52;4.88;;;1.15;;
19084;SDS011;9675;51.538;6.728;2023-06-14T09:10:20;1.13;;;0.55;;
19084;SDS011;9675;51.538;6.728;2023-06-14T09:12:48;3.17;;;1.00;;
19084;SDS011;9675;51.538;6.728;2023-06-14T09:15:15;1.38;;;0.70;;
19084;SDS011;9675;51.538;6.728;2023-06-14T09:17:42;1.95;;;1.10;;
19084;SDS011;9675;51.538;6.728;2023-06-14T09:20:10;1.75;;;0.70;;
19084;SDS011;9675;51.538;6.728;2023-06-14T09:22:40;1.35;;;0.70;;
19084;SDS011;9675;51.538;6.728;2023-06-14T09:25:07;1.27;;;0.90;;
19084;SDS011;9675;51.538;6.728;2023-06-14T09:27:37;1.60;;;1.10;;
19084;SDS011;9675;51.538;6.728;2023-06-14T09:30:08;0.80;;;0.70;;
19084;SDS011;9675;51.538;6.728;2023-06-14T09:32:36;3.50;;;0.82;;
19084;SDS011;9675;51.538;6.728;2023-06-14T09:35:05;0.43;;;0.40;;
19084;SDS011;9675;51.538;6.728;2023-06-14T09:37:34;2.28;;;0.98;;
19084;SDS011;9675;51.538;6.728;2023-06-14T09:40:05;7.72;;;0.88;;
19084;SDS011;9675;51.538;6.728;2023-06-14T09:42:33;3.13;;;0.90;;
19084;SDS011;9675;51.538;6.728;2023-06-14T09:45:02;1.27;;;0.70;;
19084;SDS011;9675;51.538;6.728;2023-06-14T09:47:30;0.95;;;0.70;;
19084;SDS011;9675;51.538;6.728;2023-06-14T09:49:57;0.95;;;0.60;;
19084;SDS011;9675;51.538;6.728;2023-06-14T09:52:25;1.20;;;0.50;;
19084;SDS011;9675;51.538;6.728;2023-06-14T09:54:54;0.80;;;0.43;;
19084;SDS011;9675;51.538;6.728;2023-06-14T09:57:25;1.02;;;0.50;;
19084;SDS011;9675;51.538;6.728;2023-06-14T09:59:56;1.73;;;0.73;;
19084;SDS011;9675;51.538;6.728;2023-06-14T10:02:28;0.80;;;0.28;;
19084;SDS011;9675;51.538;6.728;2023-06-14T10:05:03;1.27;;;0.50;;
19084;SDS011;9675;51.538;6.728;2023-06-14T10:07:32;7.70;;;0.93;;
19084;SDS011;9675;51.538;6.728;2023-06-14T10:10:06;0.80;;;0.32;;
19084;SDS011;9675;51.538;6.728;2023-06-14T10:12:36;0.35;;;0.35;;
19084;SDS011;9675;51.538;6.728;2023-06-14T10:15:04;1.83;;;0.63;;
19084;SDS011;9675;51.538;6.728;2023-06-14T10:17:35;0.90;;;0.40;;
19084;SDS011;9675;51.538;6.728;2023-06-14T10:20:16;1.63;;;0.65;;
19084;SDS011;9675;51.538;6.728;2023-06-14T10:22:56;0.38;;;0.30;;
19084;SDS011;9675;51.538;6.728;2023-06-14T10:25:31;5.03;;;0.57;;
19084;SDS011;9675;51.538;6.728;2023-06-14T10:28:05;0.20;;;0.20;;
19084;SDS011;9675;51.538;6.728;2023-06-14T10:33:32;0.90;;;0.52;;
19084;SDS011;9675;51.538;6.728;2023-06-14T10:39:04;1.15;;;0.40;;
19084;SDS011;9675;51.538;6.728;2023-06-14T10:41:34;0.63;;;0.50;;
19084;SDS011;9675;51.538;6.728;2023-06-14T10:47:21;1.02;;;0.50;;
19084;SDS011;9675;51.538;6.728;2023-06-14T10:49:51;0.50;;;0.38;;
19084;SDS011;9675;51.538;6.728;2023-06-14T10:52:21;1.88;;;0.30;;
19084;SDS011;9675;51.538;6.728;2023-06-14T10:55:02;0.40;;;0.40;;
19084;SDS011;9675;51.538;6.728;2023-06-14T10:57:40;0.55;;;0.30;;
19084;SDS011;9675;51.538;6.728;2023-06-14T11:00:12;0.60;;;0.60;;
19084;SDS011;9675;51.538;6.728;2023-06-14T11:02:52;2.25;;;0.65;;
19084;SDS011;9675;51.538;6.728;2023-06-14T11:06:01;0.77;;;0.30;;
19084;SDS011;9675;51.538;6.728;2023-06-14T11:09:05;1.30;;;0.40;;
19084;SDS011;9675;51.538;6.728;2023-06-14T11:12:13;1.65;;;0.30;;
19084;SDS011;9675;51.538;6.728;2023-06-14T11:14:45;3.53;;;0.47;;
19084;SDS011;9675;51.538;6.728;2023-06-14T11:17:15;0.35;;;0.20;;
19084;SDS011;9675;51.538;6.728;2023-06-14T11:19:42;4.55;;;0.70;;
19084;SDS011;9675;51.538;6.728;2023-06-14T11:22:10;1.00;;;0.40;;
19084;SDS011;9675;51.538;6.728;2023-06-14T11:24:39;2.83;;;0.30;;
19084;SDS011;9675;51.538;6.728;2023-06-14T11:27:06;6.30;;;0.50;;
19084;SDS011;9675;51.538;6.728;2023-06-14T11:29:33;1.27;;;0.45;;
19084;SDS011;9675;51.538;6.728;2023-06-14T11:32:01;2.88;;;1.00;;
19084;SDS011;9675;51.538;6.728;2023-06-14T11:34:29;0.95;;;0.50;;
19084;SDS011;9675;51.538;6.728;2023-06-14T11:36:56;6.05;;;0.75;;
19084;SDS011;9675;51.538;6.728;2023-06-14T11:39:24;2.72;;;0.88;;
19084;SDS011;9675;51.538;6.728;2023-06-14T11:41:52;1.23;;;0.55;;
19084;SDS011;9675;51.538;6.728;2023-06-14T11:44:20;2.50;;;0.65;;
19084;SDS011;9675;51.538;6.728;2023-06-14T11:46:47;0.60;;;0.47;;
19084;SDS011;9675;51.538;6.728;2023-06-14T11:49:15;1.13;;;0.50;;
19084;SDS011;9675;51.538;6.728;2023-06-14T11:51:44;0.55;;;0.38;;
19084;SDS011;9675;51.538;6.728;2023-06-14T11:54:12;0.52;;;0.32;;
19084;SDS011;9675;51.538;6.728;2023-06-14T11:56:39;0.95;;;0.68;;
19084;SDS011;9675;51.538;6.728;2023-06-14T11:59:07;1.63;;;0.50;;
19084;SDS011;9675;51.538;6.728;2023-06-14T12:01:37;1.08;;;0.50;;
19084;SDS011;9675;51.538;6.728;2023-06-14T12:04:04;1.30;;;0.68;;
19084;SDS011;9675;51.538;6.728;2023-06-14T12:06:31;3.38;;;0.43;;
19084;SDS011;9675;51.538;6.728;2023-06-14T12:09:04;1.15;;;0.50;;
19084;SDS011;9675;51.538;6.728;2023-06-14T12:11:37;1.50;;;0.70;;
19084;SDS011;9675;51.538;6.728;2023-06-14T12:14:05;0.88;;;0.50;;
19084;SDS011;9675;51.538;6.728;2023-06-14T12:16:34;0.65;;;0.20;;
19084;SDS011;9675;51.538;6.728;2023-06-14T12:19:08;2.35;;;0.60;;
19084;SDS011;9675;51.538;6.728;2023-06-14T12:21:38;1.77;;;0.70;;
19084;SDS011;9675;51.538;6.728;2023-06-14T12:24:08;0.63;;;0.45;;
19084;SDS011;9675;51.538;6.728;2023-06-14T12:26:37;0.88;;;0.50;;
19084;SDS011;9675;51.538;6.728;2023-06-14T12:29:06;0.70;;;0.63;;
19084;SDS011;9675;51.538;6.728;2023-06-14T12:31:34;1.27;;;0.20;;
19084;SDS011;9675;51.538;6.728;2023-06-14T12:34:01;1.83;;;0.63;;
19084;SDS011;9675;51.538;6.728;2023-06-14T12:36:29;2.88;;;1.15;;
19084;SDS011;9675;51.538;6.728;2023-06-14T12:38:57;2.13;;;0.70;;
19084;SDS011;9675;51.538;6.728;2023-06-14T12:41:25;0.80;;;0.75;;
19084;SDS011;9675;51.538;6.728;2023-06-14T12:43:52;0.77;;;0.70;;
19084;SDS011;9675;51.538;6.728;2023-06-14T12:46:20;6.97;;;0.80;;
19084;SDS011;9675;51.538;6.728;2023-06-14T12:48:47;0.90;;;0.65;;
19084;SDS011;9675;51.538;6.728;2023-06-14T12:51:14;1.48;;;0.88;;
19084;SDS011;9675;51.538;6.728;2023-06-14T12:53:42;0.68;;;0.57;;
19084;SDS011;9675;51.538;6.728;2023-06-14T12:56:09;1.08;;;0.70;;
19084;SDS011;9675;51.538;6.728;2023-06-14T12:58:37;6.15;;;1.08;;
19084;SDS011;9675;51.538;6.728;2023-06-14T13:01:04;1.88;;;0.73;;
19084;SDS011;9675;51.538;6.728;2023-06-14T13:03:31;0.98;;;0.77;;
19084;SDS011;9675;51.538;6.728;2023-06-14T13:05:59;1.60;;;0.65;;
19084;SDS011;9675;51.538;6.728;2023-06-14T13:08:26;2.15;;;0.60;;
19084;SDS011;9675;51.538;6.728;2023-06-14T13:10:53;1.20;;;0.60;;
19084;SDS011;9675;51.538;6.728;2023-06-14T13:13:20;1.63;;;0.70;;
19084;SDS011;9675;51.538;6.728;2023-06-14T13:15:49;1.17;;;0.75;;
19084;SDS011;9675;51.538;6.728;2023-06-14T13:18:16;1.00;;;0.90;;
19084;SDS011;9675;51.538;6.728;2023-06-14T13:20:44;0.95;;;0.82;;
19084;SDS011;9675;51.538;6.728;2023-06-14T13:23:12;1.02;;;0.82;;
19084;SDS011;9675;51.538;6.728;2023-06-14T13:25:39;1.50;;;0.75;;
19084;SDS011;9675;51.538;6.728;2023-06-14T13:28:07;0.95;;;0.80;;
19084;SDS011;9675;51.538;6.728;2023-06-14T13:30:34;1.20;;;0.90;;
19084;SDS011;9675;51.538;6.728;2023-06-14T13:33:03;1.45;;;1.05;;
19084;SDS011;9675;51.538;6.728;2023-06-14T13:35:30;4.00;;;0.98;;
19084;SDS011;9675;51.538;6.728;2023-06-14T13:37:57;2.05;;;0.75;;
19084;SDS011;9675;51.538;6.728;2023-06-14T13:40:24;3.55;;;1.00;;
19084;SDS011;9675;51.538;6.728;2023-06-14T13:42:51;2.45;;;0.80;;
19084;SDS011;9675;51.538;6.728;2023-06-14T13:45:18;1.35;;;0.70;;
19084;SDS011;9675;51.538;6.728;2023-06-14T13:47:45;0.65;;;0.45;;
19084;SDS011;9675;51.538;6.728;2023-06-14T13:50:15;2.40;;;0.75;;
19084;SDS011;9675;51.538;6.728;2023-06-14T13:52:42;1.17;;;0.77;;
19084;SDS011;9675;51.538;6.728;2023-06-14T13:55:09;0.98;;;0.82;;
19084;SDS011;9675;51.538;6.728;2023-06-14T13:57:36;0.52;;;0.40;;
19084;SDS011;9675;51.538;6.728;2023-06-14T14:00:04;1.90;;;1.05;;
19084;SDS011;9675;51.538;6.728;2023-06-14T14:02:33;1.58;;;0.93;;
19084;SDS011;9675;51.538;6.728;2023-06-14T14:05:00;0.57;;;0.57;;
19084;SDS011;9675;51.538;6.728;2023-06-14T14:07:29;3.20;;;0.95;;
19084;SDS011;9675;51.538;6.728;2023-06-14T14:09:56;1.85;;;1.08;;
19084;SDS011;9675;51.538;6.728;2023-06-14T14:12:23;0.82;;;0.80;;
19084;SDS011;9675;51.538;6.728;2023-06-14T14:14:50;2.13;;;0.73;;
19084;SDS011;9675;51.538;6.728;2023-06-14T14:17:18;0.68;;;0.63;;
19084;SDS011;9675;51.538;6.728;2023-06-14T14:19:46;1.73;;;1.15;;
19084;SDS011;9675;51.538;6.728;2023-06-14T14:22:13;1.42;;;1.10;;
19084;SDS011;9675;51.538;6.728;2023-06-14T14:24:41;1.05;;;0.95;;
19084;SDS011;9675;51.538;6.728;2023-06-14T14:27:09;5.45;;;1.30;;
19084;SDS011;9675;51.538;6.728;2023-06-14T14:29:37;3.88;;;0.88;;
19084;SDS011;9675;51.538;6.728;2023-06-14T14:32:04;1.27;;;0.90;;
19084;SDS011;9675;51.538;6.728;2023-06-14T14:34:32;3.10;;;0.90;;
19084;SDS011;9675;51.538;6.728;2023-06-14T14:36:59;2.20;;;1.30;;
19084;SDS011;9675;51.538;6.728;2023-06-14T14:39:26;3.60;;;1.30;;
19084;SDS011;9675;51.538;6.728;2023-06-14T14:41:54;1.48;;;0.80;;
19084;SDS011;9675;51.538;6.728;2023-06-14T14:44:21;6.45;;;0.93;;
19084;SDS011;9675;51.538;6.728;2023-06-14T14:46:48;1.95;;;0.93;;
19084;SDS011;9675;51.538;6.728;2023-06-14T14:49:15;2.90;;;1.05;;
19084;SDS011;9675;51.538;6.728;2023-06-14T14:51:42;6.03;;;1.10;;
19084;SDS011;9675;51.538;6.728;2023-06-14T14:54:09;2.67;;;1.08;;
19084;SDS011;9675;51.538;6.728;2023-06-14T14:56:36;1.30;;;1.15;;
19084;SDS011;9675;51.538;6.728;2023-06-14T14:59:05;1.35;;;0.73;;
19084;SDS011;9675;51.538;6.728;2023-06-14T15:01:32;1.52;;;0.88;;
19084;SDS011;9675;51.538;6.728;2023-06-14T15:03:59;1.17;;;0.90;;
19084;SDS011;9675;51.538;6.728;2023-06-14T15:06:26;3.13;;;1.08;;
19084;SDS011;9675;51.538;6.728;2023-06-14T15:08:53;3.75;;;1.08;;
19084;SDS011;9675;51.538;6.728;2023-06-14T15:11:20;0.70;;;0.70;;
19084;SDS011;9675;51.538;6.728;2023-06-14T15:13:47;4.13;;;0.98;;
19084;SDS011;9675;51.538;6.728;2023-06-14T15:16:16;2.10;;;1.30;;
19084;SDS011;9675;51.538;6.728;2023-06-14T15:18:43;1.65;;;1.10;;